createdAt,value
2022-10-19T00:02:13.966Z,71.09
2022-10-19T00:04:45.587Z,71.04
2022-10-19T00:07:16.404Z,71.01
2022-10-19T00:09:47.487Z,70.99
2022-10-19T00:12:18.474Z,71.04
2022-10-19T00:14:49.700Z,71.14
2022-10-19T00:17:21.115Z,71.12
2022-10-19T00:19:51.926Z,71.01
2022-10-19T00:22:22.881Z,70.91
2022-10-19T00:24:53.849Z,70.83
2022-10-19T00:27:24.687Z,70.92
2022-10-19T00:29:55.480Z,70.99
2022-10-19T00:32:26.395Z,71.01
2022-10-19T00:34:57.203Z,71.02
2022-10-19T00:37:28.356Z,70.95
2022-10-19T00:39:59.294Z,71.02
2022-10-19T00:42:30.279Z,71.08
2022-10-19T00:45:06.090Z,71.08
2022-10-19T00:47:37.200Z,71.06
2022-10-19T00:50:10.047Z,71.05
2022-10-19T00:52:40.969Z,70.89
2022-10-19T00:55:14.056Z,71.04
2022-10-19T00:57:45.006Z,70.97
2022-10-19T01:00:16.715Z,71.07
2022-10-19T01:02:47.858Z,71.16
2022-10-19T01:05:19.529Z,71.24
2022-10-19T01:07:51.095Z,71.27
2022-10-19T01:10:30.804Z,71.32
2022-10-19T01:13:20.332Z,71.41
2022-10-19T01:15:58.878Z,71.69
2022-10-19T01:18:41.182Z,71.84
2022-10-19T01:21:30.407Z,72.08
2022-10-19T01:24:43.470Z,72.09
2022-10-19T01:27:34.300Z,72.35
2022-10-19T01:30:11.756Z,72.41
2022-10-19T01:32:52.591Z,72.47
2022-10-19T01:35:34.611Z,72.63
2022-10-19T01:38:18.745Z,72.62
2022-10-19T01:40:57.070Z,72.68
2022-10-19T01:43:41.328Z,72.58
2022-10-19T01:46:17.480Z,72.48
2022-10-19T01:48:53.527Z,72.50
2022-10-19T01:51:29.083Z,72.59
2022-10-19T01:54:06.694Z,72.43
2022-10-19T01:56:42.254Z,72.35
2022-10-19T01:59:15.743Z,72.32
2022-10-19T02:01:49.963Z,72.39
2022-10-19T02:04:23.152Z,72.41
2022-10-19T02:06:55.031Z,72.59
2022-10-19T02:09:25.970Z,72.44
2022-10-19T02:12:02.440Z,72.56
2022-10-19T02:14:38.490Z,72.68
2022-10-19T02:17:12.486Z,72.62
2022-10-19T02:19:43.853Z,72.77
2022-10-19T02:22:15.078Z,72.67
2022-10-19T02:24:46.029Z,72.73
2022-10-19T02:27:17.273Z,72.62
2022-10-19T02:29:48.147Z,72.66
2022-10-19T02:32:19.059Z,72.64
2022-10-19T02:34:50.202Z,72.72
2022-10-19T02:37:23.420Z,72.71
2022-10-19T02:39:56.713Z,72.68
2022-10-19T02:42:34.784Z,72.60
2022-10-19T02:45:13.697Z,72.57
2022-10-19T02:47:49.858Z,72.59
2022-10-19T02:50:22.741Z,72.45
2022-10-19T02:52:53.952Z,72.51
2022-10-19T02:55:24.959Z,72.43
2022-10-19T02:57:55.971Z,72.41
2022-10-19T03:00:27.382Z,72.42
2022-10-19T03:02:58.156Z,72.59
2022-10-19T03:05:28.993Z,72.56
2022-10-19T03:07:59.773Z,72.48
2022-10-19T03:10:30.699Z,72.59
2022-10-19T03:13:01.595Z,72.57
2022-10-19T03:15:32.610Z,72.57
2022-10-19T03:18:03.494Z,72.69
2022-10-19T03:20:34.449Z,72.74
2022-10-19T03:23:05.309Z,72.81
2022-10-19T03:25:36.947Z,72.83
2022-10-19T03:28:08.026Z,72.82
2022-10-19T03:30:38.852Z,72.95
2022-10-19T03:33:09.687Z,73.07
2022-10-19T03:35:40.627Z,73.08
2022-10-19T03:38:11.576Z,73.26
2022-10-19T03:40:43.307Z,73.10
2022-10-19T03:43:14.308Z,73.14
2022-10-19T03:45:48.513Z,73.11
2022-10-19T03:48:19.377Z,72.98
2022-10-19T03:50:50.261Z,73.06
2022-10-19T03:53:21.098Z,73.14
2022-10-19T03:55:51.973Z,73.15
2022-10-19T03:58:22.843Z,73.22
2022-10-19T04:00:53.727Z,73.23
2022-10-19T04:03:24.793Z,73.13
2022-10-19T04:06:02.918Z,73.19
2022-10-19T04:08:34.088Z,73.25
2022-10-19T04:11:06.334Z,73.18
2022-10-19T04:13:38.087Z,73.23
2022-10-19T04:16:10.917Z,73.13
2022-10-19T04:18:41.899Z,72.90
2022-10-19T04:21:24.040Z,72.86
2022-10-19T04:23:59.091Z,72.85
2022-10-19T04:26:31.062Z,72.84
2022-10-19T04:29:03.765Z,72.89
2022-10-19T04:31:35.126Z,72.86
2022-10-19T04:34:07.661Z,72.79
2022-10-19T04:36:39.675Z,72.71
2022-10-19T04:39:11.357Z,72.95
2022-10-19T04:41:42.270Z,72.95
2022-10-19T04:44:18.608Z,72.90
2022-10-19T04:46:49.900Z,72.87
2022-10-19T04:49:20.935Z,72.92
2022-10-19T04:51:51.718Z,72.83
2022-10-19T04:54:22.656Z,72.75
2022-10-19T04:56:54.383Z,72.87
2022-10-19T04:59:26.900Z,73.01
2022-10-19T05:01:58.063Z,72.93
2022-10-19T05:04:28.987Z,72.94
2022-10-19T05:06:59.972Z,72.85
2022-10-19T05:09:30.862Z,72.95
2022-10-19T05:12:02.878Z,72.83
2022-10-19T05:14:39.021Z,72.87
2022-10-19T05:17:12.997Z,72.90
2022-10-19T05:19:44.086Z,72.83
2022-10-19T05:22:18.202Z,72.77
2022-10-19T05:24:49.220Z,72.75
2022-10-19T05:27:20.024Z,72.77
2022-10-19T05:29:52.224Z,72.79
2022-10-19T05:32:23.924Z,72.71
2022-10-19T05:34:54.768Z,72.86
2022-10-19T05:37:25.794Z,72.61
2022-10-19T05:39:57.214Z,72.61
2022-10-19T05:42:30.075Z,72.59
2022-10-19T05:45:01.552Z,72.52
2022-10-19T05:47:32.906Z,72.56
2022-10-19T05:50:04.759Z,72.52
2022-10-19T05:52:35.668Z,72.58
2022-10-19T05:55:07.804Z,72.50
2022-10-19T05:57:41.935Z,72.59
2022-10-19T06:00:14.995Z,72.45
2022-10-19T06:02:46.183Z,72.38
2022-10-19T06:05:17.034Z,72.46
2022-10-19T06:07:50.625Z,72.46
2022-10-19T06:10:24.111Z,72.21
2022-10-19T06:12:55.028Z,71.99
2022-10-19T06:15:25.844Z,71.92
2022-10-19T06:17:57.274Z,71.90
2022-10-19T06:20:29.831Z,71.94
2022-10-19T06:23:05.685Z,73.00
2022-10-19T06:25:40.947Z,72.84
2022-10-19T06:28:12.090Z,71.88
2022-10-19T06:30:43.886Z,71.19
2022-10-19T06:33:15.111Z,70.57
2022-10-19T06:35:46.052Z,70.20
2022-10-19T06:38:17.268Z,69.98
2022-10-19T06:40:49.183Z,69.82
2022-10-19T06:43:19.951Z,69.76
2022-10-19T06:45:50.825Z,69.88
2022-10-19T06:48:21.696Z,69.85
2022-10-19T06:51:02.712Z,69.87
2022-10-19T06:53:34.441Z,69.88
2022-10-19T06:56:11.443Z,69.86
2022-10-19T06:58:42.685Z,69.87
2022-10-19T07:01:15.049Z,70.00
2022-10-19T07:03:45.971Z,69.95
2022-10-19T07:06:18.152Z,69.87
2022-10-19T07:08:48.974Z,69.92
2022-10-19T07:11:22.491Z,69.89
2022-10-19T07:13:55.471Z,70.02
2022-10-19T07:16:26.262Z,69.90
2022-10-19T07:18:57.124Z,70.08
2022-10-19T07:21:27.877Z,71.14
2022-10-19T07:23:59.314Z,71.29
2022-10-19T07:26:31.400Z,70.93
2022-10-19T07:29:02.983Z,70.88
2022-10-19T07:31:35.126Z,70.81
2022-10-19T07:34:07.821Z,69.45
2022-10-19T07:36:39.780Z,66.79
2022-10-19T07:39:11.079Z,65.11
2022-10-19T07:41:41.954Z,64.03
2022-10-19T07:44:16.622Z,63.21
2022-10-19T07:46:47.899Z,62.75
2022-10-19T07:49:20.105Z,62.42
2022-10-19T07:51:55.922Z,62.37
2022-10-19T07:54:27.583Z,62.15
2022-10-19T07:56:58.511Z,62.46
2022-10-19T07:59:30.544Z,62.55
2022-10-19T08:02:04.588Z,62.61
2022-10-19T08:04:59.404Z,62.73
2022-10-19T08:07:33.806Z,63.09
2022-10-19T08:10:05.054Z,63.55
2022-10-19T08:12:38.835Z,63.71
2022-10-19T08:15:12.110Z,63.85
2022-10-19T08:17:43.302Z,63.93
2022-10-19T08:20:14.581Z,64.10
2022-10-19T08:22:47.806Z,64.12
2022-10-19T08:25:18.732Z,64.26
2022-10-19T08:27:50.652Z,64.49
2022-10-19T08:30:21.966Z,64.65
2022-10-19T08:32:52.891Z,64.85
2022-10-19T08:35:23.776Z,65.01
2022-10-19T08:37:55.042Z,65.28
2022-10-19T08:40:29.806Z,65.61
2022-10-19T08:43:06.454Z,65.67
2022-10-19T08:45:54.839Z,65.91
2022-10-19T08:48:33.364Z,66.13
2022-10-19T08:51:09.360Z,66.24
2022-10-19T08:53:48.016Z,66.35
2022-10-19T08:56:49.452Z,66.38
2022-10-19T08:59:32.039Z,66.59
2022-10-19T09:02:07.244Z,66.62
2022-10-19T09:04:43.297Z,66.80
2022-10-19T09:07:29.146Z,66.90
2022-10-19T09:10:00.873Z,66.93
2022-10-19T09:12:46.274Z,67.17
2022-10-19T09:15:20.706Z,67.46
2022-10-19T09:17:51.553Z,67.55
2022-10-19T09:20:26.394Z,67.49
2022-10-19T09:23:13.786Z,67.55
2022-10-19T09:25:47.404Z,67.58
2022-10-19T09:28:36.517Z,67.66
2022-10-19T09:31:16.727Z,67.73
2022-10-19T09:33:54.345Z,67.92
2022-10-19T09:36:50.011Z,68.03
2022-10-19T09:39:24.535Z,68.05
2022-10-19T09:42:01.929Z,67.82
2022-10-19T09:44:33.566Z,67.59
2022-10-19T09:47:21.886Z,68.06
2022-10-19T09:50:06.345Z,68.24
2022-10-19T09:52:41.641Z,67.94
2022-10-19T09:55:26.595Z,67.29
2022-10-19T09:58:05.288Z,66.89
2022-10-19T10:00:42.985Z,66.58
2022-10-19T10:03:26.624Z,65.93
2022-10-19T10:06:00.408Z,64.92
2022-10-19T10:08:36.326Z,64.49
2022-10-19T10:11:12.707Z,64.42
2022-10-19T10:13:49.443Z,64.71
2022-10-19T10:16:24.587Z,64.84
2022-10-19T10:18:59.366Z,64.96
2022-10-19T10:21:36.606Z,65.07
2022-10-19T10:24:22.045Z,65.20
2022-10-19T10:26:56.119Z,65.28
2022-10-19T10:29:29.518Z,65.52
2022-10-19T10:32:08.311Z,65.37
2022-10-19T10:34:51.927Z,65.37
2022-10-19T10:37:32.336Z,65.27
2022-10-19T10:40:05.583Z,65.09
2022-10-19T10:42:43.335Z,65.09
2022-10-19T10:45:23.791Z,65.13
2022-10-19T10:47:55.218Z,65.04
2022-10-19T10:50:33.361Z,65.00
2022-10-19T10:53:06.778Z,64.93
2022-10-19T10:55:37.601Z,64.70
2022-10-19T10:58:18.855Z,64.65
2022-10-19T11:00:53.479Z,64.46
2022-10-19T11:03:28.935Z,64.38
2022-10-19T11:06:04.618Z,64.22
2022-10-19T11:08:50.136Z,64.16
2022-10-19T11:11:21.858Z,64.25
2022-10-19T11:13:59.815Z,64.10
2022-10-19T11:16:37.577Z,63.82
2022-10-19T11:19:18.962Z,63.68
2022-10-19T11:21:58.809Z,63.19
2022-10-19T11:24:37.624Z,63.05
2022-10-19T11:27:19.795Z,62.81
2022-10-19T11:30:09.546Z,62.58
2022-10-19T11:33:01.605Z,62.06
2022-10-19T11:35:54.063Z,61.71
2022-10-19T11:38:43.418Z,61.18
2022-10-19T11:41:27.771Z,60.96
2022-10-19T11:44:13.905Z,60.90
2022-10-19T11:46:56.665Z,60.91
2022-10-19T11:49:40.601Z,60.89
2022-10-19T11:52:17.943Z,61.02
2022-10-19T11:55:02.958Z,61.06
2022-10-19T11:57:38.127Z,60.79
2022-10-19T12:00:14.999Z,60.56
2022-10-19T12:03:25.184Z,60.08
2022-10-19T12:06:09.362Z,59.97
2022-10-19T12:08:58.419Z,60.07
2022-10-19T12:11:43.533Z,59.92
2022-10-19T12:14:19.269Z,59.75
2022-10-19T12:16:54.423Z,59.70
2022-10-19T12:19:26.917Z,59.70
2022-10-19T12:22:03.911Z,59.70
2022-10-19T12:24:36.667Z,59.76
2022-10-19T12:27:12.380Z,59.67
2022-10-19T12:29:49.243Z,59.49
2022-10-19T12:32:24.943Z,59.51
2022-10-19T12:35:08.240Z,59.54
2022-10-19T12:37:45.790Z,59.23
2022-10-19T12:40:26.748Z,59.11
2022-10-19T12:43:06.696Z,58.75
2022-10-19T12:45:41.182Z,58.63
2022-10-19T12:48:29.690Z,58.37
2022-10-19T12:51:08.120Z,58.36
2022-10-19T12:53:42.019Z,58.48
2022-10-19T12:56:19.197Z,58.32
2022-10-19T12:58:59.836Z,58.10
2022-10-19T13:01:44.856Z,57.80
2022-10-19T13:04:23.310Z,57.53
2022-10-19T13:07:03.404Z,57.17
2022-10-19T13:09:36.848Z,57.09
2022-10-19T13:12:28.996Z,56.89
2022-10-19T13:15:01.760Z,56.90
2022-10-19T13:17:46.467Z,56.72
2022-10-19T13:20:52.644Z,56.69
2022-10-19T13:23:45.351Z,56.67
2022-10-19T13:26:35.841Z,56.39
2022-10-19T13:29:29.267Z,56.12
2022-10-19T13:32:38.091Z,55.96
2022-10-19T13:35:42.159Z,55.70
2022-10-19T13:41:19.143Z,55.65
2022-10-19T13:44:02.005Z,55.93
2022-10-19T13:46:49.311Z,56.27
2022-10-19T13:49:55.515Z,56.57
2022-10-19T13:52:51.234Z,56.60
2022-10-19T13:55:46.507Z,56.57
2022-10-19T13:58:42.990Z,56.79
2022-10-19T14:01:28.228Z,56.87
2022-10-19T14:04:15.898Z,57.15
2022-10-19T14:06:50.117Z,57.14
2022-10-19T14:09:49.215Z,57.21
2022-10-19T14:12:25.679Z,57.50
2022-10-19T14:14:57.511Z,57.54
2022-10-19T14:17:34.394Z,57.84
2022-10-19T14:20:25.671Z,58.16
2022-10-19T14:22:59.858Z,58.69
2022-10-19T14:25:35.504Z,59.11
2022-10-19T14:28:10.080Z,59.33
2022-10-19T14:30:41.170Z,59.69
2022-10-19T14:33:18.419Z,59.84
2022-10-19T14:35:59.220Z,60.18
2022-10-19T14:38:35.231Z,60.40
2022-10-19T14:41:08.210Z,60.67
2022-10-19T14:43:39.129Z,60.71
2022-10-19T14:46:16.718Z,60.55
2022-10-19T14:48:49.694Z,60.45
2022-10-19T14:51:31.156Z,60.26
2022-10-19T14:54:07.701Z,59.98
2022-10-19T14:56:44.500Z,59.74
2022-10-19T14:59:25.924Z,59.47
2022-10-19T15:02:00.722Z,59.24
2022-10-19T15:04:34.608Z,59.49
2022-10-19T15:07:18.337Z,59.22
2022-10-19T15:09:55.926Z,59.18
2022-10-19T15:12:30.764Z,59.16
2022-10-19T15:15:01.786Z,59.19
2022-10-19T15:17:36.180Z,58.99
2022-10-19T15:20:26.741Z,59.09
2022-10-19T15:23:00.281Z,59.13
2022-10-19T15:25:37.911Z,59.17
2022-10-19T15:28:39.014Z,58.96
2022-10-19T15:31:21.918Z,58.88
2022-10-19T15:33:55.984Z,58.74
2022-10-19T15:36:29.758Z,58.85
2022-10-19T15:42:19.194Z,59.00
2022-10-19T15:44:50.763Z,59.08
2022-10-19T15:47:34.598Z,59.00
2022-10-19T15:50:26.485Z,59.29
2022-10-19T15:52:57.425Z,59.18
2022-10-19T15:55:28.535Z,59.13
2022-10-19T15:58:02.518Z,58.88
2022-10-19T16:00:34.612Z,59.04
2022-10-19T16:03:05.630Z,58.90
2022-10-19T16:05:37.842Z,58.97
2022-10-19T16:08:12.483Z,59.20
2022-10-19T16:10:43.609Z,59.22
2022-10-19T16:13:14.752Z,59.17
2022-10-19T16:15:50.032Z,59.41
2022-10-19T16:18:27.812Z,59.66
2022-10-19T16:21:00.451Z,59.77
2022-10-19T16:23:37.743Z,59.74
2022-10-19T16:26:14.768Z,59.70
2022-10-19T16:28:48.682Z,59.70
2022-10-19T16:31:20.050Z,59.83
2022-10-19T16:33:51.011Z,60.04
2022-10-19T16:36:22.003Z,60.02
2022-10-19T16:38:53.338Z,60.22
2022-10-19T16:41:24.391Z,60.15
2022-10-19T16:43:58.369Z,60.30
2022-10-19T16:46:31.173Z,60.25
2022-10-19T16:49:02.214Z,60.41
2022-10-19T16:51:37.092Z,60.39
2022-10-19T16:54:16.236Z,60.39
2022-10-19T16:56:49.046Z,60.62
2022-10-19T16:59:21.854Z,60.77
2022-10-19T17:01:55.007Z,60.77
2022-10-19T17:04:26.280Z,60.68
2022-10-19T17:07:02.621Z,60.78
2022-10-19T17:09:41.838Z,60.97
2022-10-19T17:12:16.344Z,60.85
2022-10-19T17:15:41.508Z,60.99
2022-10-19T17:18:21.712Z,61.07
2022-10-19T17:20:53.216Z,60.93
2022-10-19T17:23:25.277Z,60.88
2022-10-19T17:25:56.401Z,61.00
2022-10-19T17:28:28.353Z,60.83
2022-10-19T17:31:03.674Z,60.87
2022-10-19T17:33:35.334Z,60.88
2022-10-19T17:36:13.772Z,61.10
2022-10-19T17:38:47.306Z,60.97
2022-10-19T17:41:20.072Z,61.19
2022-10-19T17:43:53.572Z,61.26
2022-10-19T17:46:29.368Z,61.10
2022-10-19T17:49:02.174Z,61.18
2022-10-19T17:51:35.553Z,61.25
2022-10-19T17:54:08.878Z,61.28
2022-10-19T17:56:41.088Z,61.32
2022-10-19T17:59:12.625Z,61.40
2022-10-19T18:01:44.592Z,61.49
2022-10-19T18:04:15.810Z,61.28
2022-10-19T18:06:47.295Z,61.56
2022-10-19T18:09:19.784Z,61.48
2022-10-19T18:11:53.956Z,61.37
2022-10-19T18:14:26.710Z,61.56
2022-10-19T18:16:57.767Z,61.75
2022-10-19T18:19:29.462Z,61.55
2022-10-19T18:22:01.093Z,61.64
2022-10-19T18:24:35.202Z,61.88
2022-10-19T18:27:07.750Z,61.76
2022-10-19T18:29:38.792Z,62.04
2022-10-19T18:32:09.847Z,61.94
2022-10-19T18:34:41.216Z,62.20
2022-10-19T18:37:12.107Z,62.10
2022-10-19T18:39:44.073Z,62.13
2022-10-19T18:42:16.489Z,62.47
2022-10-19T18:44:48.575Z,62.40
2022-10-19T18:47:19.888Z,62.31
2022-10-19T18:49:51.644Z,62.33
2022-10-19T18:52:23.339Z,62.52
2022-10-19T18:54:55.240Z,62.47
2022-10-19T18:57:31.602Z,62.64
2022-10-19T19:00:03.514Z,62.53
2022-10-19T19:02:47.064Z,62.54
2022-10-19T19:05:19.505Z,62.52
2022-10-19T19:07:51.383Z,62.57
2022-10-19T19:10:22.875Z,62.68
2022-10-19T19:12:54.223Z,62.67
2022-10-19T19:15:25.081Z,62.73
2022-10-19T19:17:57.727Z,62.77
2022-10-19T19:20:29.912Z,62.82
2022-10-19T19:23:02.152Z,62.78
2022-10-19T19:25:33.297Z,62.87
2022-10-19T19:28:04.249Z,62.87
2022-10-19T19:30:40.386Z,62.95
2022-10-19T19:33:11.850Z,63.04
2022-10-19T19:35:51.947Z,63.05
2022-10-19T19:38:24.920Z,63.09
2022-10-19T19:40:56.217Z,63.13
2022-10-19T19:43:27.381Z,63.22
2022-10-19T19:46:09.626Z,63.38
2022-10-19T19:48:41.641Z,63.54
2022-10-19T19:51:14.428Z,63.52
2022-10-19T19:53:45.648Z,63.56
2022-10-19T19:56:20.821Z,63.77
2022-10-19T19:58:54.735Z,63.82
2022-10-19T20:01:26.429Z,63.75
2022-10-19T20:06:40.268Z,63.95
2022-10-19T20:09:11.942Z,64.13
2022-10-19T20:11:45.294Z,64.31
2022-10-19T20:14:16.542Z,64.38
2022-10-19T20:16:47.657Z,64.54
2022-10-19T20:19:21.180Z,64.54
2022-10-19T20:21:52.911Z,64.58
2022-10-19T20:24:24.144Z,64.57
2022-10-19T20:26:56.011Z,64.66
2022-10-19T20:29:26.916Z,64.80
2022-10-19T20:31:58.691Z,64.92
2022-10-19T20:34:33.307Z,64.90
2022-10-19T20:37:04.653Z,64.87
2022-10-19T20:39:36.985Z,65.10
2022-10-19T20:42:08.182Z,65.10
2022-10-19T20:44:39.260Z,65.12
2022-10-19T20:47:10.472Z,65.17
2022-10-19T20:49:42.022Z,65.16
2022-10-19T20:52:13.028Z,65.26
2022-10-19T20:54:48.691Z,65.26
2022-10-19T20:57:19.683Z,65.48
2022-10-19T20:59:51.486Z,65.61
2022-10-19T21:02:22.932Z,65.65
2022-10-19T21:04:54.001Z,65.73
2022-10-19T21:07:25.283Z,65.75
2022-10-19T21:09:57.013Z,65.75
2022-10-19T21:12:28.293Z,65.73
2022-10-19T21:14:59.835Z,65.74
2022-10-19T21:20:07.764Z,65.82
2022-10-19T21:22:42.948Z,66.01
2022-10-19T21:25:16.585Z,65.96
2022-10-19T21:27:47.572Z,66.02
2022-10-19T21:30:18.562Z,66.12
2022-10-19T21:32:50.318Z,66.16
2022-10-19T21:35:21.268Z,66.22
2022-10-19T21:37:52.160Z,66.26
2022-10-19T21:40:23.527Z,66.27
2022-10-19T21:42:54.485Z,66.20
2022-10-19T21:45:30.156Z,66.28
2022-10-19T21:48:01.921Z,66.33
2022-10-19T21:50:32.747Z,66.39
2022-10-19T21:53:04.485Z,66.45
2022-10-19T21:55:38.107Z,66.30
2022-10-19T21:58:09.002Z,66.59
2022-10-19T22:00:39.861Z,66.77
2022-10-19T22:03:11.810Z,66.83
2022-10-19T22:05:50.272Z,66.78
2022-10-19T22:08:21.447Z,66.83
2022-10-19T22:10:52.410Z,67.02
2022-10-19T22:13:23.525Z,66.98
2022-10-19T22:15:54.457Z,67.16
2022-10-19T22:18:25.503Z,67.02
2022-10-19T22:20:56.306Z,67.25
2022-10-19T22:23:27.224Z,67.23
2022-10-19T22:25:58.871Z,67.30
2022-10-19T22:28:29.993Z,67.34
2022-10-19T22:31:01.382Z,67.23
2022-10-19T22:33:32.206Z,67.21
2022-10-19T22:36:05.516Z,67.22
2022-10-19T22:38:37.477Z,67.22
2022-10-19T22:41:10.696Z,67.23
2022-10-19T22:43:41.653Z,67.33
2022-10-19T22:46:12.324Z,67.52
2022-10-19T22:48:43.053Z,67.44
2022-10-19T22:51:13.735Z,67.61
2022-10-19T22:53:44.529Z,67.66
2022-10-19T22:56:15.641Z,67.59
2022-10-19T22:58:46.364Z,67.68
2022-10-19T23:01:18.185Z,67.69
2022-10-19T23:03:48.885Z,67.63
2022-10-19T23:06:19.549Z,67.72
2022-10-19T23:08:50.674Z,67.78
2022-10-19T23:11:21.745Z,67.85
2022-10-19T23:13:52.630Z,67.70
2022-10-19T23:16:23.380Z,67.69
2022-10-19T23:18:54.122Z,67.49
2022-10-19T23:21:24.769Z,67.41
2022-10-19T23:23:56.096Z,67.42
2022-10-19T23:26:27.434Z,67.37
2022-10-19T23:28:58.122Z,67.31
2022-10-19T23:31:30.541Z,67.29
2022-10-19T23:34:02.170Z,67.22
2022-10-19T23:36:32.887Z,67.05
2022-10-19T23:39:03.589Z,66.97
2022-10-19T23:41:34.548Z,67.10
2022-10-19T23:44:05.902Z,67.19
2022-10-19T23:46:36.754Z,67.41
2022-10-19T23:49:07.578Z,67.51
2022-10-19T23:51:38.455Z,67.76
2022-10-19T23:54:09.266Z,67.79
2022-10-19T23:56:40.082Z,67.63
2022-10-19T23:59:10.845Z,67.72
